createdAt,value
2024-03-07T00:00:23.209Z,18.02
2024-03-07T00:05:26.166Z,17.20
2024-03-07T00:10:28.447Z,18.08
2024-03-07T00:15:31.265Z,17.42
2024-03-07T00:20:32.957Z,15.93
2024-03-07T00:25:34.705Z,17.98
2024-03-07T00:30:36.501Z,16.70
2024-03-07T00:35:38.267Z,16.70
2024-03-07T00:40:39.969Z,18.80
2024-03-07T00:45:41.945Z,14.73
2024-03-07T00:50:43.857Z,16.80
2024-03-07T00:55:46.021Z,16.05
2024-03-07T01:00:47.689Z,17.52
2024-03-07T01:05:49.475Z,19.35
2024-03-07T01:10:51.342Z,17.67
2024-03-07T01:15:53.071Z,16.02
2024-03-07T01:20:55.978Z,18.52
2024-03-07T01:26:00.806Z,16.98
2024-03-07T01:31:02.468Z,17.55
2024-03-07T01:36:06.252Z,18.08
2024-03-07T01:41:07.905Z,18.85
2024-03-07T01:46:11.237Z,17.48
2024-03-07T01:51:12.922Z,20.13
2024-03-07T01:56:14.680Z,16.10
2024-03-07T02:01:16.866Z,18.75
2024-03-07T02:06:18.772Z,20.08
2024-03-07T02:11:20.746Z,19.98
2024-03-07T02:16:22.736Z,19.55
2024-03-07T02:21:24.385Z,16.73
2024-03-07T02:26:26.183Z,18.98
2024-03-07T02:31:36.200Z,18.92
2024-03-07T02:36:38.054Z,19.05
2024-03-07T02:41:39.875Z,18.70
2024-03-07T02:46:42.190Z,18.35
2024-03-07T02:51:43.891Z,16.60
2024-03-07T02:56:46.563Z,17.45
2024-03-07T03:01:48.384Z,18.38
2024-03-07T03:06:50.084Z,19.25
2024-03-07T03:11:52.893Z,20.25
2024-03-07T03:16:54.624Z,18.92
2024-03-07T03:21:56.905Z,18.92
2024-03-07T03:26:58.758Z,20.63
2024-03-07T03:32:00.547Z,18.83
2024-03-07T03:37:02.187Z,17.17
2024-03-07T03:42:03.977Z,19.33
2024-03-07T03:47:05.698Z,17.73
2024-03-07T03:52:07.741Z,18.65
2024-03-07T03:57:09.454Z,19.95
2024-03-07T04:02:12.082Z,17.90
2024-03-07T04:07:13.931Z,18.73
2024-03-07T04:12:16.500Z,16.08
2024-03-07T04:17:18.296Z,19.60
2024-03-07T04:22:22.865Z,17.90
2024-03-07T04:27:24.713Z,20.08
2024-03-07T04:32:26.442Z,19.50
2024-03-07T04:37:28.528Z,18.10
2024-03-07T04:42:30.305Z,18.95
2024-03-07T04:47:31.998Z,20.77
2024-03-07T04:52:34.480Z,19.92
2024-03-07T04:57:41.115Z,20.30
2024-03-07T05:07:44.933Z,19.00
2024-03-07T05:12:46.611Z,19.80
2024-03-07T05:17:48.419Z,18.80
2024-03-07T05:22:53.068Z,18.55
2024-03-07T05:27:55.319Z,18.52
2024-03-07T05:32:57.101Z,19.25
2024-03-07T05:37:59.199Z,19.50
2024-03-07T05:43:00.849Z,18.13
2024-03-07T05:48:15.809Z,19.05
2024-03-07T05:53:19.191Z,20.25
2024-03-07T05:58:21.118Z,18.52
2024-03-07T06:03:22.787Z,19.48
2024-03-07T06:08:24.520Z,20.80
2024-03-07T06:13:26.247Z,18.38
2024-03-07T06:18:31.391Z,20.85
2024-03-07T06:23:33.626Z,18.85
2024-03-07T06:28:35.269Z,19.50
2024-03-07T06:33:38.326Z,19.65
2024-03-07T06:38:40.365Z,19.08
2024-03-07T06:43:44.223Z,19.35
2024-03-07T06:48:45.977Z,18.05
2024-03-07T06:53:51.464Z,19.67
2024-03-07T06:58:53.337Z,17.35
2024-03-07T07:03:55.909Z,19.50
2024-03-07T07:08:57.591Z,18.75
2024-03-07T07:13:59.269Z,17.65
2024-03-07T07:19:00.899Z,16.50
2024-03-07T07:24:03.175Z,15.60
2024-03-07T07:29:05.867Z,15.80
2024-03-07T07:34:07.619Z,12.73
2024-03-07T07:39:18.074Z,12.20
2024-03-07T07:44:20.548Z,11.98
2024-03-07T07:49:22.190Z,11.23
2024-03-07T07:54:25.766Z,11.23
2024-03-07T07:59:27.454Z,10.02
2024-03-07T08:04:29.133Z,11.18
2024-03-07T08:09:30.801Z,11.23
2024-03-07T08:14:32.467Z,10.93
2024-03-07T08:19:34.144Z,9.55
2024-03-07T08:24:35.746Z,9.45
2024-03-07T08:29:37.408Z,9.05
2024-03-07T08:34:39.039Z,9.27
2024-03-07T08:39:42.022Z,10.15
2024-03-07T08:44:44.056Z,8.93
2024-03-07T08:49:45.712Z,7.95
2024-03-07T08:54:47.989Z,7.40
2024-03-07T08:59:50.059Z,7.97
2024-03-07T09:04:51.873Z,8.27
2024-03-07T09:09:53.725Z,8.65
2024-03-07T09:14:57.279Z,7.93
2024-03-07T09:19:59.215Z,8.50
2024-03-07T09:25:00.887Z,6.97
2024-03-07T09:30:02.580Z,7.28
2024-03-07T09:35:04.768Z,7.18
2024-03-07T09:40:07.667Z,7.88
2024-03-07T09:45:09.806Z,8.20
2024-03-07T09:50:11.475Z,7.50
2024-03-07T09:55:14.607Z,8.18
2024-03-07T10:00:28.045Z,9.40
2024-03-07T10:05:32.437Z,8.30
2024-03-07T10:10:34.366Z,8.40
2024-03-07T10:15:36.394Z,9.20
2024-03-07T10:20:38.494Z,9.50
2024-03-07T10:25:41.417Z,9.23
2024-03-07T10:30:45.680Z,9.57
2024-03-07T10:35:50.361Z,9.30
2024-03-07T10:40:56.254Z,9.68
2024-03-07T10:45:58.242Z,11.18
2024-03-07T10:50:59.893Z,9.48
2024-03-07T10:56:28.378Z,10.90
2024-03-07T11:01:35.673Z,10.15
2024-03-07T11:06:38.460Z,11.27
2024-03-07T11:11:45.115Z,10.65
2024-03-07T11:16:47.098Z,10.90
2024-03-07T11:21:49.441Z,11.48
2024-03-07T11:26:57.461Z,11.70
2024-03-07T11:31:59.091Z,10.43
2024-03-07T11:37:01.198Z,10.23
2024-03-07T11:42:07.740Z,11.00
2024-03-07T11:47:12.474Z,9.77
2024-03-07T11:52:14.380Z,9.50
2024-03-07T11:57:17.001Z,10.38
2024-03-07T12:02:22.620Z,9.38
2024-03-07T12:07:24.436Z,10.68
2024-03-07T12:12:26.301Z,11.52
2024-03-07T12:17:31.268Z,10.15
2024-03-07T12:22:34.112Z,10.25
2024-03-07T12:27:35.685Z,11.15
2024-03-07T12:32:37.415Z,11.32
2024-03-07T12:37:39.125Z,11.00
2024-03-07T12:42:40.724Z,9.75
2024-03-07T12:47:42.365Z,9.50
2024-03-07T12:52:46.882Z,9.32
2024-03-07T12:57:50.986Z,8.45
2024-03-07T13:02:52.649Z,9.90
2024-03-07T13:07:54.492Z,8.68
2024-03-07T13:12:56.132Z,7.88
2024-03-07T13:17:57.805Z,8.95
2024-03-07T13:23:01.930Z,8.65
2024-03-07T13:28:17.571Z,9.48
2024-03-07T13:33:19.589Z,9.00
2024-03-07T13:38:21.610Z,8.85
2024-03-07T13:43:23.306Z,9.27
2024-03-07T13:48:25.331Z,8.65
2024-03-07T13:53:29.178Z,8.68
2024-03-07T13:58:34.051Z,7.72
2024-03-07T14:03:50.470Z,8.50
2024-03-07T14:09:00.615Z,7.43
2024-03-07T14:14:08.248Z,8.15
2024-03-07T14:19:47.366Z,8.40
2024-03-07T14:25:27.199Z,8.50
2024-03-07T14:30:45.076Z,8.65
2024-03-07T14:36:08.767Z,8.90
2024-03-07T14:41:13.415Z,8.80
2024-03-07T14:46:16.808Z,8.55
2024-03-07T14:51:18.896Z,8.00
2024-03-07T14:56:21.134Z,9.13
2024-03-07T15:01:22.790Z,9.68
2024-03-07T15:06:24.385Z,9.27
2024-03-07T15:11:37.244Z,9.77
2024-03-07T15:16:40.249Z,9.32
2024-03-07T15:21:41.932Z,9.32
2024-03-07T15:26:46.993Z,9.60
2024-03-07T15:31:50.726Z,8.88
2024-03-07T15:37:01.146Z,9.38
2024-03-07T15:42:02.817Z,9.52
2024-03-07T15:47:07.873Z,9.73
2024-03-07T15:52:10.592Z,8.77
2024-03-07T15:57:12.315Z,8.70
2024-03-07T16:02:15.725Z,9.52
2024-03-07T16:07:17.719Z,9.40
2024-03-07T16:12:19.893Z,9.75
2024-03-07T16:17:21.598Z,9.75
2024-03-07T16:22:23.846Z,9.68
2024-03-07T16:27:25.506Z,10.93
2024-03-07T16:32:28.282Z,10.13
2024-03-07T16:37:29.975Z,9.35
2024-03-07T16:42:31.556Z,9.63
2024-03-07T16:47:33.197Z,10.45
2024-03-07T16:52:34.895Z,10.40
2024-03-07T16:57:43.216Z,10.10
2024-03-07T17:02:48.113Z,10.50
2024-03-07T17:07:50.612Z,10.50
2024-03-07T17:12:52.434Z,10.45
2024-03-07T17:17:54.903Z,11.27
2024-03-07T17:22:57.266Z,10.27
2024-03-07T17:28:00.595Z,10.82
2024-03-07T17:33:02.458Z,10.27
2024-03-07T17:38:04.391Z,12.23
2024-03-07T17:43:06.030Z,11.15
2024-03-07T17:48:09.047Z,11.10
2024-03-07T17:53:14.864Z,12.00
2024-03-07T17:58:20.876Z,12.18
2024-03-07T18:03:22.872Z,11.82
2024-03-07T18:08:35.610Z,12.70
2024-03-07T18:13:44.558Z,12.23
2024-03-07T18:18:47.495Z,13.75
2024-03-07T18:23:50.094Z,12.82
2024-03-07T18:28:53.359Z,11.85
2024-03-07T18:33:55.080Z,13.13
2024-03-07T18:38:56.927Z,10.85
2024-03-07T18:43:58.633Z,13.90
2024-03-07T18:49:00.944Z,11.52
2024-03-07T18:54:02.779Z,12.73
2024-03-07T18:59:11.165Z,11.88
2024-03-07T19:04:12.796Z,12.02
2024-03-07T19:09:14.655Z,12.43
2024-03-07T19:14:16.290Z,14.18
2024-03-07T19:19:18.187Z,13.77
2024-03-07T19:24:20.426Z,11.88
2024-03-07T19:29:22.229Z,12.07
2024-03-07T19:34:23.898Z,12.35
2024-03-07T19:39:27.928Z,12.88
2024-03-07T19:44:31.978Z,13.52
2024-03-07T19:49:36.756Z,12.95
2024-03-07T19:54:39.480Z,12.65
2024-03-07T19:59:41.256Z,13.30
2024-03-07T20:04:44.515Z,12.80
2024-03-07T20:09:48.351Z,13.52
2024-03-07T20:14:50.114Z,13.02
2024-03-07T20:19:51.724Z,13.07
2024-03-07T20:24:53.349Z,14.02
2024-03-07T20:29:54.972Z,14.85
2024-03-07T20:34:57.129Z,13.98
2024-03-07T20:40:05.216Z,13.18
2024-03-07T20:45:12.314Z,13.70
2024-03-07T20:50:16.929Z,13.32
2024-03-07T20:55:23.947Z,15.00
2024-03-07T21:00:26.398Z,13.05
2024-03-07T21:05:28.455Z,13.75
2024-03-07T21:10:30.814Z,12.63
2024-03-07T21:15:32.402Z,11.70
2024-03-07T21:20:34.660Z,11.77
2024-03-07T21:25:36.996Z,12.43
2024-03-07T21:30:39.030Z,13.20
2024-03-07T21:35:42.679Z,12.65
2024-03-07T21:40:48.749Z,13.00
2024-03-07T21:45:50.338Z,11.57
2024-03-07T21:50:52.051Z,13.95
2024-03-07T21:55:57.015Z,12.88
2024-03-07T22:00:58.640Z,12.48
2024-03-07T22:06:00.335Z,12.80
2024-03-07T22:11:02.043Z,13.52
2024-03-07T22:16:03.909Z,13.35
2024-03-07T22:21:07.900Z,13.80
2024-03-07T22:26:15.446Z,13.20
2024-03-07T22:31:17.015Z,13.50
2024-03-07T22:36:19.683Z,14.13
2024-03-07T22:41:21.586Z,13.32
2024-03-07T22:46:23.928Z,13.18
2024-03-07T22:51:25.524Z,12.30
2024-03-07T22:56:30.038Z,12.88
2024-03-07T23:01:34.814Z,13.25
2024-03-07T23:06:36.375Z,12.48
2024-03-07T23:11:38.094Z,12.57
2024-03-07T23:16:39.695Z,12.27
2024-03-07T23:21:44.138Z,11.60
2024-03-07T23:26:52.988Z,14.15
2024-03-07T23:31:54.996Z,13.98
2024-03-07T23:36:57.349Z,13.90
2024-03-07T23:41:58.978Z,12.52
2024-03-07T23:47:00.826Z,12.52
2024-03-07T23:52:02.416Z,13.57
2024-03-07T23:57:05.592Z,15.30
